Time;durP1;ratioP1;P1;durP2;ratioP2;P2;SDS_P1;SDS_P2;PMS_P1;PMS_P2;Temp;Humidity;BMP_temperature;BMP_pressure;BME280_temperature;BME280_humidity;BME280_pressure;Samples;Min_cycle;Max_cycle;Signal;HPM_P1;HPM_P2
2021/08/28 04:00:33;;;;;;;8.23;7.43;;;13.60;99.90;;;;;;6110342;23;20523;31
2021/08/28 04:03:01;;;;;;;7.00;6.30;;;13.60;99.90;;;;;;6095113;23;20439;-69
2021/08/28 04:05:28;;;;;;;8.77;6.97;;;13.60;99.90;;;;;;6096354;23;20428;-69
2021/08/28 04:07:55;;;;;;;7.67;7.07;;;13.60;99.90;;;;;;6095986;23;20476;-68
2021/08/28 04:10:22;;;;;;;10.97;8.70;;;13.60;99.90;;;;;;6096327;23;20452;-68
2021/08/28 04:12:49;;;;;;;10.03;9.13;;;13.60;99.90;;;;;;6095431;23;20911;-69
2021/08/28 04:15:16;;;;;;;10.00;9.10;;;13.60;99.90;;;;;;6095813;23;20424;-68
2021/08/28 04:17:42;;;;;;;10.70;8.93;;;13.60;99.90;;;;;;6095810;23;20440;-68
2021/08/28 04:20:11;;;;;;;11.93;9.80;;;13.60;99.90;;;;;;6096430;23;20428;-68
2021/08/28 04:22:38;;;;;;;12.87;10.40;;;13.70;99.90;;;;;;6095948;23;20484;-68
2021/08/28 04:25:05;;;;;;;13.83;11.47;;;13.70;99.90;;;;;;6096107;23;20914;-68
2021/08/28 04:27:32;;;;;;;13.27;10.70;;;13.70;99.90;;;;;;6095700;23;20743;-68
2021/08/28 04:29:58;;;;;;;12.90;10.93;;;13.70;99.90;;;;;;6095724;23;20769;-68
2021/08/28 04:32:25;;;;;;;13.00;10.80;;;13.70;99.90;;;;;;6095429;23;20858;-68
2021/08/28 04:34:52;;;;;;;18.17;11.57;;;13.70;99.90;;;;;;6096341;23;20424;-68
2021/08/28 04:37:20;;;;;;;17.10;12.00;;;13.70;99.90;;;;;;6095813;23;20773;-68
2021/08/28 04:39:46;;;;;;;21.53;12.43;;;13.70;99.90;;;;;;6095988;23;20460;-68
2021/08/28 04:42:13;;;;;;;17.43;12.00;;;13.70;99.90;;;;;;6095173;23;20500;-68
2021/08/28 04:44:39;;;;;;;16.90;13.00;;;13.80;99.90;;;;;;6095293;23;20906;-68
2021/08/28 04:47:06;;;;;;;16.83;12.43;;;13.80;99.90;;;;;;6095678;23;20465;-69
2021/08/28 04:49:33;;;;;;;15.77;12.33;;;13.70;99.90;;;;;;6095928;23;20495;-68
2021/08/28 04:51:59;;;;;;;16.83;13.27;;;13.80;99.90;;;;;;6095575;23;20457;-68
2021/08/28 04:54:27;;;;;;;18.00;13.17;;;13.80;99.90;;;;;;6095939;23;20188;-68
2021/08/28 04:56:54;;;;;;;18.83;11.90;;;13.80;99.90;;;;;;6096385;23;20479;-68
2021/08/28 04:59:21;;;;;;;21.90;11.53;;;13.80;99.90;;;;;;6095088;23;20248;-68
2021/08/28 05:01:47;;;;;;;15.40;12.40;;;13.80;99.90;;;;;;6132106;23;20454;-68
2021/08/28 05:04:14;;;;;;;16.50;11.43;;;13.80;99.90;;;;;;6153188;23;20438;-68
2021/08/28 05:06:41;;;;;;;16.50;11.23;;;13.80;99.90;;;;;;6154724;23;20477;-68
2021/08/28 05:09:07;;;;;;;13.00;10.80;;;13.80;99.90;;;;;;6154344;23;20454;-70
2021/08/28 05:11:35;;;;;;;13.87;10.70;;;13.80;99.90;;;;;;6154850;23;20787;-70
2021/08/28 05:14:02;;;;;;;12.43;9.90;;;13.80;99.90;;;;;;6153299;23;20493;-70
2021/08/28 05:16:28;;;;;;;12.43;10.87;;;13.90;99.90;;;;;;6155079;23;20179;-69
2021/08/28 05:18:55;;;;;;;13.73;11.30;;;13.90;99.90;;;;;;6153857;23;20418;-70
2021/08/28 05:21:22;;;;;;;13.60;11.60;;;13.90;99.90;;;;;;6154024;23;20948;-70
2021/08/28 05:23:48;;;;;;;12.07;10.50;;;13.80;99.90;;;;;;6154069;23;20445;-70
2021/08/28 05:26:15;;;;;;;14.00;11.80;;;13.90;99.90;;;;;;6154102;23;20431;-70
2021/08/28 05:28:43;;;;;;;12.47;11.17;;;13.90;99.90;;;;;;6153218;23;20498;-69
2021/08/28 05:31:10;;;;;;;13.97;11.50;;;13.90;99.90;;;;;;6154740;23;20473;-68
2021/08/28 05:33:36;;;;;;;14.10;11.73;;;13.90;99.90;;;;;;6153351;23;20429;-68
2021/08/28 05:36:03;;;;;;;16.53;11.83;;;13.90;99.90;;;;;;6154509;23;20422;-68
2021/08/28 05:38:30;;;;;;;12.33;10.83;;;14.00;99.90;;;;;;6154632;23;20446;-68
2021/08/28 05:40:57;;;;;;;12.60;10.10;;;14.00;99.90;;;;;;6154460;23;20505;-68
2021/08/28 05:43:24;;;;;;;15.27;10.90;;;14.00;99.90;;;;;;6154186;23;20910;-70
2021/08/28 05:45:52;;;;;;;11.37;9.80;;;14.00;99.90;;;;;;6154073;23;20419;-70
2021/08/28 05:48:19;;;;;;;12.40;10.07;;;14.00;99.90;;;;;;6153930;23;20800;-70
2021/08/28 05:50:46;;;;;;;10.90;9.77;;;14.10;99.90;;;;;;6156600;23;20462;-69
2021/08/28 05:53:12;;;;;;;11.20;10.07;;;14.00;99.90;;;;;;6158200;23;20489;-69
2021/08/28 05:55:39;;;;;;;11.63;10.37;;;14.10;99.90;;;;;;6157388;23;20423;-69
2021/08/28 05:58:05;;;;;;;12.80;10.47;;;14.10;99.90;;;;;;6156989;23;20430;-69
2021/08/28 06:00:32;;;;;;;11.50;10.37;;;14.10;99.90;;;;;;6157014;23;20765;-68
2021/08/28 06:03:00;;;;;;;18.83;10.87;;;14.10;99.90;;;;;;6157953;23;20403;-69
2021/08/28 06:05:27;;;;;;;16.33;10.90;;;14.10;99.90;;;;;;6157815;23;20423;-68
2021/08/28 06:07:54;;;;;;;12.50;10.13;;;14.20;99.90;;;;;;6156122;23;20485;-69
2021/08/28 06:10:22;;;;;;;13.93;10.13;;;14.20;99.90;;;;;;6154116;23;20478;-69
2021/08/28 06:12:48;;;;;;;16.47;11.43;;;14.20;99.90;;;;;;6154150;23;20414;-69
2021/08/28 06:15:15;;;;;;;12.27;10.60;;;14.30;99.90;;;;;;6153892;23;20759;-69
2021/08/28 06:17:42;;;;;;;14.63;10.10;;;14.30;99.90;;;;;;6153873;23;20454;-68
2021/08/28 06:20:12;;;;;;;11.33;9.90;;;14.30;99.90;;;;;;6154373;23;20473;-69
2021/08/28 06:22:39;;;;;;;10.73;9.70;;;14.40;99.90;;;;;;6153630;23;20825;-68
2021/08/28 06:25:06;;;;;;;12.43;9.77;;;14.40;99.90;;;;;;6154042;23;20967;-69
2021/08/28 06:27:33;;;;;;;10.63;8.83;;;14.40;99.90;;;;;;6154043;23;20457;-68
2021/08/28 06:29:59;;;;;;;10.77;8.87;;;14.40;99.90;;;;;;6153662;23;20446;-68
2021/08/28 06:32:27;;;;;;;8.33;7.53;;;14.40;99.90;;;;;;6153343;23;20884;-68
2021/08/28 06:34:54;;;;;;;10.70;8.50;;;14.40;99.90;;;;;;6153868;23;20737;-68
2021/08/28 06:37:22;;;;;;;9.33;8.47;;;14.40;99.90;;;;;;6154070;23;20473;-68
2021/08/28 06:39:48;;;;;;;10.03;8.63;;;14.40;99.90;;;;;;6154154;23;20423;-68
2021/08/28 06:42:15;;;;;;;11.90;8.23;;;14.40;99.90;;;;;;6153808;23;20762;-69
2021/08/28 06:44:41;;;;;;;10.20;8.73;;;14.50;99.90;;;;;;6153376;23;20477;-68
2021/08/28 06:47:08;;;;;;;9.77;8.10;;;14.50;99.90;;;;;;6153171;23;20458;-69
2021/08/28 06:49:35;;;;;;;12.00;9.40;;;14.50;99.90;;;;;;6154210;23;20443;-68
2021/08/28 06:52:01;;;;;;;8.30;7.50;;;14.50;99.90;;;;;;6153531;23;20442;-69
2021/08/28 06:54:29;;;;;;;8.37;7.60;;;14.50;99.90;;;;;;6153901;23;20438;-68
2021/08/28 06:56:56;;;;;;;10.20;8.67;;;14.50;99.90;;;;;;6154522;23;20710;-68
2021/08/28 06:59:23;;;;;;;9.30;8.47;;;14.60;99.90;;;;;;6153015;23;20493;-68
2021/08/28 07:01:49;;;;;;;9.40;8.50;;;14.60;99.90;;;;;;6153946;23;20454;-68
2021/08/28 07:04:16;;;;;;;8.83;8.03;;;14.70;99.90;;;;;;6153899;23;20446;-68
2021/08/28 07:06:42;;;;;;;8.67;7.87;;;14.70;99.90;;;;;;6155788;23;20413;-69
2021/08/28 07:09:09;;;;;;;8.53;7.63;;;14.80;99.90;;;;;;6155229;23;20426;-69
2021/08/28 07:11:37;;;;;;;8.17;7.27;;;14.80;99.90;;;;;;6155985;23;20449;-70
2021/08/28 07:14:04;;;;;;;8.33;7.50;;;14.90;99.90;;;;;;6155181;23;20430;-70
2021/08/28 07:16:30;;;;;;;8.40;7.50;;;14.90;99.90;;;;;;6156072;23;20429;-70
2021/08/28 07:18:57;;;;;;;8.70;7.90;;;14.90;99.90;;;;;;6155064;23;20501;-70
2021/08/28 07:21:24;;;;;;;11.67;7.83;;;15.00;99.90;;;;;;6155764;23;20470;-70
2021/08/28 07:23:50;;;;;;;9.13;8.13;;;15.10;99.90;;;;;;6155513;23;20422;-69
2021/08/28 07:26:18;;;;;;;9.30;8.50;;;15.10;99.90;;;;;;6155851;23;20435;-70
2021/08/28 07:28:46;;;;;;;9.80;8.70;;;15.10;99.90;;;;;;6155164;23;20504;-70
2021/08/28 07:31:13;;;;;;;9.30;8.40;;;15.10;99.90;;;;;;6155778;23;20459;-70
2021/08/28 07:33:40;;;;;;;9.30;8.50;;;15.10;99.90;;;;;;6154318;23;20423;-70
2021/08/28 07:36:06;;;;;;;8.87;7.97;;;15.10;99.90;;;;;;6155656;23;20501;-70
2021/08/28 07:38:33;;;;;;;9.40;8.57;;;15.10;99.90;;;;;;6155463;23;20430;-70
2021/08/28 07:41:00;;;;;;;11.60;7.97;;;15.20;99.90;;;;;;6165099;23;20501;-70
2021/08/28 07:43:27;;;;;;;9.87;8.97;;;15.20;99.90;;;;;;6155006;23;20893;-70
2021/08/28 07:45:55;;;;;;;8.73;7.90;;;15.30;99.90;;;;;;6156203;23;20476;-70
2021/08/28 07:48:21;;;;;;;8.83;8.03;;;15.30;99.90;;;;;;6154927;23;20426;-70
2021/08/28 07:50:48;;;;;;;8.17;7.47;;;15.30;99.90;;;;;;6154976;23;20518;-70
2021/08/28 07:53:15;;;;;;;8.80;8.10;;;15.30;99.90;;;;;;6155441;23;20474;-69
2021/08/28 07:55:41;;;;;;;10.60;8.73;;;15.30;99.90;;;;;;6155512;23;20792;-70
2021/08/28 07:58:08;;;;;;;8.17;7.47;;;15.40;99.90;;;;;;6155714;23;20435;-70
2021/08/28 08:00:34;;;;;;;7.90;7.20;;;15.40;99.90;;;;;;6154785;23;20438;-70
2021/08/28 08:03:03;;;;;;;9.73;8.83;;;15.30;99.90;;;;;;6154767;23;20407;-70
2021/08/28 08:05:29;;;;;;;8.63;7.90;;;15.40;99.90;;;;;;6155692;23;20799;-70
2021/08/28 08:07:56;;;;;;;9.43;8.63;;;15.40;99.90;;;;;;6155246;23;20429;-69
2021/08/28 08:10:23;;;;;;;8.97;8.17;;;15.40;99.90;;;;;;6154780;23;20481;-70
2021/08/28 08:12:49;;;;;;;8.63;8.00;;;15.40;99.90;;;;;;6155234;23;20784;-70
2021/08/28 08:15:16;;;;;;;12.67;8.63;;;15.40;99.90;;;;;;6154509;23;20473;-70
2021/08/28 08:17:42;;;;;;;9.77;8.40;;;15.50;99.90;;;;;;6154473;23;20430;-70
2021/08/28 08:20:12;;;;;;;11.77;10.40;;;15.50;99.90;;;;;;6154822;23;20423;-70
2021/08/28 08:22:39;;;;;;;10.03;9.23;;;15.60;99.90;;;;;;6155097;23;20430;-70
2021/08/28 08:25:06;;;;;;;11.73;10.60;;;15.70;99.90;;;;;;6154896;23;20916;-70
2021/08/28 08:27:33;;;;;;;12.10;9.50;;;15.80;99.90;;;;;;6154882;23;20901;-71
2021/08/28 08:29:59;;;;;;;11.33;10.30;;;15.90;99.90;;;;;;6154822;23;20497;-70
2021/08/28 08:32:26;;;;;;;11.60;10.33;;;15.90;99.90;;;;;;6154536;23;20446;-70
2021/08/28 08:34:54;;;;;;;12.33;9.57;;;15.90;99.90;;;;;;6155109;23;20481;-70
2021/08/28 08:37:22;;;;;;;11.40;9.20;;;16.00;99.90;;;;;;6155077;23;20514;-69
2021/08/28 08:39:48;;;;;;;8.80;8.10;;;15.90;99.90;;;;;;6155305;23;20430;-70
2021/08/28 08:42:18;;;;;;;10.50;9.47;;;15.90;99.90;;;;;;6154932;23;20443;-69
2021/08/28 08:44:47;;;;;;;9.00;8.10;;;16.00;99.90;;;;;;6154572;23;20435;-68
2021/08/28 08:47:14;;;;;;;8.87;8.07;;;16.10;99.90;;;;;;6154771;23;20446;-68
2021/08/28 08:49:42;;;;;;;9.23;8.53;;;16.20;99.90;;;;;;6155162;23;20454;-68
2021/08/28 08:52:09;;;;;;;9.27;8.37;;;16.30;99.90;;;;;;6154311;23;20976;-68
2021/08/28 08:54:37;;;;;;;9.50;8.00;;;16.50;99.90;;;;;;6154752;23;20439;-68
2021/08/28 08:57:05;;;;;;;7.23;6.53;;;16.60;99.90;;;;;;6155006;23;20407;-69
2021/08/28 08:59:32;;;;;;;6.77;6.37;;;16.60;99.90;;;;;;6154605;23;20768;-68
2021/08/28 09:02:01;;;;;;;7.27;6.77;;;16.60;99.90;;;;;;6154633;23;20446;-69
2021/08/28 09:04:28;;;;;;;9.47;8.53;;;16.50;99.90;;;;;;6154744;23;20746;-69
2021/08/28 09:06:54;;;;;;;8.00;7.20;;;16.50;99.90;;;;;;6154872;23;20443;-69
2021/08/28 09:09:22;;;;;;;7.30;6.70;;;16.40;99.90;;;;;;6154677;23;20477;-68
2021/08/28 09:12:01;;;;;;;9.07;6.17;;;16.40;99.90;;;;;;6154638;23;20450;-68
2021/08/28 09:14:28;;;;;;;7.07;6.57;;;16.30;99.90;;;;;;6154327;23;20418;-69
2021/08/28 09:16:56;;;;;;;6.80;6.27;;;16.30;99.90;;;;;;6154231;23;20438;-69
2021/08/28 09:19:37;;;;;;;9.10;8.20;;;16.30;99.90;;;;;;6154103;23;20423;-69
2021/08/28 09:22:06;;;;;;;7.50;6.90;;;16.40;99.90;;;;;;6154518;23;20589;-69
2021/08/28 09:24:43;;;;;;;7.60;7.00;;;16.40;99.90;;;;;;6154684;23;20455;-69
2021/08/28 09:27:11;;;;;;;7.37;6.77;;;16.40;99.90;;;;;;6154254;23;20533;-69
2021/08/28 09:29:42;;;;;;;7.47;6.77;;;16.30;99.90;;;;;;6154106;23;20426;-69
2021/08/28 09:32:09;;;;;;;6.87;6.23;;;16.40;99.90;;;;;;6153525;23;20513;-69
2021/08/28 09:34:36;;;;;;;7.10;6.60;;;16.40;99.90;;;;;;6154814;23;20789;-69
2021/08/28 09:37:04;;;;;;;7.07;6.67;;;16.40;99.90;;;;;;6154490;23;20446;-71
2021/08/28 09:39:40;;;;;;;6.73;6.20;;;16.40;99.90;;;;;;6154510;23;20875;-71
2021/08/28 09:42:07;;;;;;;6.50;5.97;;;16.40;99.90;;;;;;6154353;23;20469;-71
2021/08/28 09:44:40;;;;;;;7.10;6.20;;;16.40;99.90;;;;;;6154694;23;20434;-71
2021/08/28 09:47:15;;;;;;;6.30;5.80;;;16.30;99.90;;;;;;6158875;23;20423;-70
2021/08/28 09:49:44;;;;;;;6.20;5.80;;;16.30;99.90;;;;;;6155586;23;20461;-72
2021/08/28 09:52:12;;;;;;;7.30;5.73;;;16.30;99.90;;;;;;6154057;23;20814;-71
2021/08/28 09:54:40;;;;;;;6.73;6.33;;;16.30;99.90;;;;;;6154556;23;20895;-71
2021/08/28 09:57:07;;;;;;;6.67;5.53;;;16.30;99.90;;;;;;6154501;23;20734;-72
2021/08/28 09:59:34;;;;;;;5.87;5.47;;;16.40;99.90;;;;;;6153690;23;20433;-72
2021/08/28 10:02:05;;;;;;;5.00;4.70;;;16.40;99.90;;;;;;6154018;23;20505;-71
2021/08/28 10:04:49;;;;;;;5.33;5.00;;;16.40;99.90;;;;;;6154268;23;20469;-70
2021/08/28 10:07:20;;;;;;;5.57;5.27;;;16.50;99.90;;;;;;6154018;23;20468;-69
2021/08/28 10:09:48;;;;;;;7.03;6.33;;;16.50;99.90;;;;;;6154285;23;20407;-69
2021/08/28 10:12:18;;;;;;;6.20;5.90;;;16.60;99.90;;;;;;6153940;23;20454;-70
2021/08/28 10:14:45;;;;;;;5.20;4.80;;;16.70;99.90;;;;;;6153715;23;20740;-69
2021/08/28 10:17:14;;;;;;;5.03;4.77;;;16.70;99.90;;;;;;6154149;23;20466;-70
2021/08/28 10:19:43;;;;;;;5.53;5.20;;;16.80;99.90;;;;;;6154236;23;20446;-70
2021/08/28 10:22:12;;;;;;;5.37;5.07;;;16.80;99.90;;;;;;6153901;23;20731;-71
2021/08/28 10:24:42;;;;;;;6.57;6.00;;;16.90;99.90;;;;;;6154482;23;20481;-72
2021/08/28 10:27:08;;;;;;;5.83;5.50;;;17.10;99.90;;;;;;6154471;23;20423;-72
2021/08/28 10:29:36;;;;;;;5.97;5.43;;;17.10;99.90;;;;;;6154145;23;20819;-72
2021/08/28 10:32:03;;;;;;;4.50;4.20;;;17.10;99.90;;;;;;6153258;23;20924;-70
2021/08/28 10:34:32;;;;;;;4.40;4.20;;;17.10;99.90;;;;;;6154466;23;20435;-71
2021/08/28 10:36:59;;;;;;;5.03;4.50;;;17.10;99.90;;;;;;6154412;23;20747;-71
2021/08/28 10:39:27;;;;;;;3.70;3.60;;;17.00;99.90;;;;;;6155050;23;20920;-71
2021/08/28 10:41:55;;;;;;;2.90;2.90;;;17.00;99.90;;;;;;6156314;23;20489;-71
2021/08/28 10:44:21;;;;;;;3.73;3.63;;;17.00;99.90;;;;;;6155254;23;20747;-69
2021/08/28 10:46:48;;;;;;;3.50;3.30;;;17.00;99.90;;;;;;6155969;23;20449;-69
2021/08/28 10:49:15;;;;;;;2.60;2.60;;;16.90;99.90;;;;;;6155621;23;20473;-69
2021/08/28 10:51:44;;;;;;;3.00;2.90;;;16.80;99.90;;;;;;6155461;23;20446;-69
2021/08/28 10:54:12;;;;;;;2.27;2.27;;;16.70;99.90;;;;;;6155721;23;20434;-69
2021/08/28 10:56:43;;;;;;;2.83;2.73;;;16.70;99.90;;;;;;6155860;23;20439;-69
2021/08/28 10:59:19;;;;;;;2.97;2.87;;;16.60;99.90;;;;;;6155446;23;20852;-69
2021/08/28 11:01:52;;;;;;;2.77;2.67;;;16.60;99.90;;;;;;6155763;23;20446;-71
2021/08/28 11:04:33;;;;;;;2.70;2.70;;;16.70;99.90;;;;;;6154929;23;20422;-71
2021/08/28 11:07:20;;;;;;;3.67;3.57;;;16.80;99.90;;;;;;6155665;23;20932;-71
2021/08/28 11:10:13;;;;;;;3.03;2.93;;;16.90;99.90;;;;;;6155655;23;20456;-71
2021/08/28 11:12:51;;;;;;;2.90;2.80;;;17.10;99.90;;;;;;6155126;23;20430;-71
2021/08/28 11:15:42;;;;;;;3.13;3.00;;;17.10;99.90;;;;;;6155816;23;20741;-72
2021/08/28 11:18:10;;;;;;;1.80;1.80;;;17.20;99.90;;;;;;6147973;23;20441;-71
2021/08/28 11:20:39;;;;;;;2.53;2.50;;;17.30;99.90;;;;;;6155659;23;20438;-71
2021/08/28 11:23:10;;;;;;;2.07;2.07;;;17.50;99.90;;;;;;6155051;23;20552;-71
2021/08/28 11:25:40;;;;;;;2.03;2.03;;;17.70;99.90;;;;;;6155852;23;20402;-71
2021/08/28 11:28:08;;;;;;;1.63;1.63;;;17.60;99.90;;;;;;6155197;23;20477;-71
2021/08/28 11:30:55;;;;;;;2.43;2.33;;;17.50;99.90;;;;;;6155091;23;20497;-71
2021/08/28 11:33:27;;;;;;;2.00;2.00;;;17.40;99.90;;;;;;6154871;23;20510;-71
2021/08/28 11:35:57;;;;;;;2.60;2.50;;;17.20;99.90;;;;;;6155916;23;20416;-71
2021/08/28 11:38:36;;;;;;;2.87;2.77;;;17.20;99.90;;;;;;6155772;23;20430;-71
2021/08/28 11:41:06;;;;;;;3.40;3.10;;;17.40;99.90;;;;;;6155646;23;20542;-71
2021/08/28 11:43:34;;;;;;;2.83;2.83;;;17.40;99.90;;;;;;6155702;23;20473;-71
2021/08/28 11:46:05;;;;;;;2.83;2.80;;;17.30;99.90;;;;;;6155818;23;20750;-70
2021/08/28 11:48:35;;;;;;;2.50;2.40;;;17.40;99.90;;;;;;6155013;23;20770;-70
2021/08/28 11:51:07;;;;;;;2.23;2.23;;;17.50;99.90;;;;;;6155100;23;20458;-70
2021/08/28 11:53:38;;;;;;;2.10;2.10;;;17.50;99.90;;;;;;6155454;23;20415;-69
2021/08/28 11:56:07;;;;;;;2.10;2.10;;;17.60;99.90;;;;;;6155067;23;20407;-70
2021/08/28 11:58:47;;;;;;;2.60;2.60;;;17.80;99.90;;;;;;6155214;23;20859;-70
2021/08/28 12:01:24;;;;;;;3.13;3.13;;;17.90;99.90;;;;;;6155372;23;20497;-70
2021/08/28 12:03:50;;;;;;;3.17;2.97;;;17.90;99.90;;;;;;6154861;23;20411;-69
2021/08/28 12:06:17;;;;;;;2.10;2.10;;;18.00;99.90;;;;;;6154928;23;20442;-69
2021/08/28 12:08:45;;;;;;;2.87;2.77;;;18.00;99.90;;;;;;6155148;23;20493;-69
2021/08/28 12:11:16;;;;;;;2.33;2.33;;;17.90;99.90;;;;;;6155415;23;20767;-70
2021/08/28 12:13:47;;;;;;;2.63;2.63;;;17.80;99.90;;;;;;6154406;23;20414;-69
2021/08/28 12:16:26;;;;;;;2.17;2.17;;;17.60;99.90;;;;;;6155134;23;20423;-69
2021/08/28 12:19:05;;;;;;;2.27;2.27;;;17.50;99.90;;;;;;6154561;23;20465;-69
2021/08/28 12:21:34;;;;;;;2.47;2.40;;;17.50;99.90;;;;;;6155116;23;20442;-69
2021/08/28 12:24:19;;;;;;;3.07;3.07;;;17.50;99.90;;;;;;6154544;23;20422;-69
2021/08/28 12:26:49;;;;;;;3.70;3.03;;;17.60;99.90;;;;;;6155239;23;20450;-69
2021/08/28 12:29:22;;;;;;;2.77;2.70;;;17.70;99.90;;;;;;6154199;23;20423;-69
2021/08/28 12:32:03;;;;;;;2.30;2.30;;;17.80;99.90;;;;;;6154994;23;20450;-69
2021/08/28 12:34:31;;;;;;;2.37;2.37;;;17.90;99.90;;;;;;6155041;23;20414;-69
2021/08/28 12:36:59;;;;;;;2.10;2.10;;;18.00;99.90;;;;;;6155036;23;20781;-70
2021/08/28 12:39:28;;;;;;;2.80;2.70;;;18.10;99.90;;;;;;6154800;23;20477;-70
2021/08/28 12:41:55;;;;;;;1.93;1.93;;;18.10;99.90;;;;;;6154648;23;20951;-70
2021/08/28 12:44:23;;;;;;;1.90;1.90;;;18.10;99.90;;;;;;6154041;23;20423;-70
2021/08/28 12:46:51;;;;;;;2.03;2.00;;;18.10;99.90;;;;;;6154697;23;20901;-69
2021/08/28 12:49:21;;;;;;;2.17;2.10;;;18.10;99.90;;;;;;6154167;23;20733;-69
2021/08/28 12:51:53;;;;;;;1.80;1.80;;;18.00;99.90;;;;;;6154563;23;20459;-69
2021/08/28 12:54:21;;;;;;;1.60;1.60;;;18.00;99.90;;;;;;6154574;23;20407;-69
2021/08/28 12:56:51;;;;;;;1.93;1.93;;;17.90;99.90;;;;;;6154485;23;20454;-69
2021/08/28 12:59:19;;;;;;;1.63;1.63;;;17.80;99.90;;;;;;6154636;23;20499;-70
2021/08/28 13:01:50;;;;;;;2.07;2.07;;;17.90;99.90;;;;;;6154080;23;20474;-69
2021/08/28 13:04:16;;;;;;;1.67;1.67;;;18.10;99.90;;;;;;6153756;23;20809;-69
2021/08/28 13:06:43;;;;;;;1.80;1.80;;;18.10;99.90;;;;;;6154281;23;20443;-69
2021/08/28 13:09:16;;;;;;;1.50;1.50;;;18.20;99.90;;;;;;6154554;23;20474;-69
2021/08/28 13:11:55;;;;;;;1.63;1.63;;;18.10;99.90;;;;;;6154582;23;20562;-69
2021/08/28 13:14:21;;;;;;;1.50;1.50;;;17.90;99.90;;;;;;6154042;23;20469;-69
2021/08/28 13:16:54;;;;;;;1.70;1.70;;;18.00;99.90;;;;;;6154542;23;20423;-69
2021/08/28 13:19:21;;;;;;;1.57;1.57;;;18.10;99.90;;;;;;6153792;23;20924;-69
2021/08/28 13:21:56;;;;;;;2.03;2.03;;;18.10;99.90;;;;;;6154401;23;20718;-69
2021/08/28 13:24:23;;;;;;;1.50;1.50;;;18.10;99.90;;;;;;6154319;23;20406;-70
2021/08/28 13:26:58;;;;;;;1.90;1.90;;;18.00;99.90;;;;;;6154570;23;20422;-70
2021/08/28 13:29:26;;;;;;;1.67;1.67;;;18.00;99.90;;;;;;6153896;23;20426;-70
2021/08/28 13:32:08;;;;;;;1.80;1.80;;;18.00;99.90;;;;;;6153827;23;20776;-69
2021/08/28 13:34:36;;;;;;;2.17;2.17;;;17.90;99.90;;;;;;6154543;23;20406;-69
2021/08/28 13:37:04;;;;;;;2.13;2.03;;;18.00;99.90;;;;;;6154577;23;20454;-70
2021/08/28 13:39:30;;;;;;;1.93;1.93;;;18.00;99.90;;;;;;6154271;23;20434;-70
2021/08/28 13:41:58;;;;;;;2.23;2.23;;;17.90;99.90;;;;;;6154147;23;20759;-70
2021/08/28 13:44:25;;;;;;;1.87;1.87;;;17.90;99.90;;;;;;6153619;23;20493;-70
2021/08/28 13:46:52;;;;;;;1.87;1.87;;;18.00;99.90;;;;;;6154039;23;20489;-68
2021/08/28 13:49:19;;;;;;;1.97;1.97;;;18.10;99.90;;;;;;6153926;23;20489;-70
2021/08/28 13:51:45;;;;;;;1.67;1.67;;;18.10;99.90;;;;;;6154143;23;20916;-70
2021/08/28 13:54:12;;;;;;;1.20;1.20;;;18.10;99.90;;;;;;6154082;23;20423;-71
2021/08/28 13:56:38;;;;;;;1.00;1.00;;;18.10;99.90;;;;;;6154683;23;20789;-71
2021/08/28 13:59:06;;;;;;;0.97;0.97;;;18.00;99.90;;;;;;6154047;23;20453;-71
2021/08/28 14:01:33;;;;;;;1.13;1.10;;;17.80;99.90;;;;;;6154215;23;20481;-71
2021/08/28 14:04:00;;;;;;;1.20;1.20;;;17.70;99.90;;;;;;6153927;23;20454;-71
2021/08/28 14:06:28;;;;;;;1.57;1.47;;;17.60;99.90;;;;;;6154164;23;20470;-71
2021/08/28 14:08:54;;;;;;;0.80;0.80;;;17.50;99.90;;;;;;6154277;23;20449;-71
2021/08/28 14:11:21;;;;;;;0.70;0.70;;;17.40;99.90;;;;;;6154413;23;20442;-71
2021/08/28 14:13:48;;;;;;;1.47;0.90;;;17.20;99.90;;;;;;6153663;23;20431;-69
2021/08/28 14:16:16;;;;;;;0.67;0.67;;;17.10;99.90;;;;;;6156464;23;20513;-68
2021/08/28 14:18:42;;;;;;;0.73;0.73;;;17.00;99.90;;;;;;6155600;23;20430;-69
2021/08/28 14:21:09;;;;;;;0.50;0.50;;;17.00;99.90;;;;;;6156032;23;20474;-69
2021/08/28 14:23:36;;;;;;;0.63;0.63;;;16.90;99.90;;;;;;6155939;23;20737;-70
2021/08/28 14:26:02;;;;;;;0.50;0.50;;;16.80;99.90;;;;;;6155919;23;20439;-69
2021/08/28 14:28:29;;;;;;;0.80;0.80;;;16.90;99.90;;;;;;6156211;23;20584;-68
2021/08/28 14:30:56;;;;;;;0.57;0.57;;;16.90;99.90;;;;;;6155304;23;20442;-69
2021/08/28 14:33:24;;;;;;;0.73;0.73;;;16.90;99.90;;;;;;6155292;23;20797;-68
2021/08/28 14:35:51;;;;;;;0.67;0.67;;;17.00;99.90;;;;;;6156229;23;20422;-69
2021/08/28 14:38:18;;;;;;;0.70;0.70;;;17.10;99.90;;;;;;6155843;23;20493;-69
2021/08/28 14:40:44;;;;;;;0.83;0.83;;;17.10;99.90;;;;;;6156273;23;20442;-69
2021/08/28 14:43:11;;;;;;;0.70;0.70;;;17.10;99.90;;;;;;6155630;23;20419;-69
2021/08/28 14:45:38;;;;;;;0.70;0.70;;;17.10;99.90;;;;;;6155769;23;20426;-69
2021/08/28 14:48:05;;;;;;;0.47;0.47;;;17.10;99.90;;;;;;6155466;23;20453;-71
2021/08/28 14:50:33;;;;;;;0.67;0.67;;;17.10;99.90;;;;;;6155575;23;20810;-71
2021/08/28 14:53:00;;;;;;;0.83;0.70;;;17.10;99.90;;;;;;6155664;23;20443;-71
2021/08/28 14:55:27;;;;;;;0.60;0.60;;;17.20;99.90;;;;;;6155855;23;20884;-71
2021/08/28 14:57:53;;;;;;;0.30;0.30;;;17.30;99.90;;;;;;6155372;23;20804;-71
2021/08/28 15:00:20;;;;;;;0.80;0.80;;;17.30;99.90;;;;;;6155327;23;20532;-71
2021/08/28 15:02:47;;;;;;;0.40;0.40;;;17.30;99.90;;;;;;6154471;23;21029;-71
2021/08/28 15:05:13;;;;;;;0.70;0.70;;;17.30;99.90;;;;;;6155960;23;20434;-71
2021/08/28 15:07:41;;;;;;;0.53;0.53;;;17.30;99.90;;;;;;6155500;23;20923;-71
2021/08/28 15:10:09;;;;;;;0.40;0.40;;;17.20;99.90;;;;;;6155850;23;20481;-71
2021/08/28 15:12:35;;;;;;;0.50;0.50;;;17.10;99.90;;;;;;6155754;23;20446;-70
2021/08/28 15:15:02;;;;;;;0.50;0.50;;;17.10;99.90;;;;;;6155293;23;20423;-70
2021/08/28 15:17:29;;;;;;;0.50;0.50;;;17.10;99.90;;;;;;6156159;23;20477;-71
2021/08/28 15:19:55;;;;;;;0.30;0.30;;;17.10;99.90;;;;;;6157471;23;20492;-71
2021/08/28 15:22:22;;;;;;;0.40;0.40;;;17.10;99.90;;;;;;6155452;23;20469;-70
2021/08/28 15:24:50;;;;;;;0.33;0.33;;;17.00;99.90;;;;;;6155580;23;20426;-70
2021/08/28 15:27:16;;;;;;;0.60;0.60;;;17.00;99.90;;;;;;6156011;23;20462;-70
2021/08/28 15:29:43;;;;;;;0.90;0.90;;;17.00;99.90;;;;;;6155988;23;20427;-70
2021/08/28 15:32:10;;;;;;;1.70;1.07;;;17.00;99.90;;;;;;6154711;23;20528;-70
2021/08/28 15:34:36;;;;;;;0.50;0.50;;;17.00;99.90;;;;;;6155100;23;20800;-71
2021/08/28 15:37:03;;;;;;;0.50;0.50;;;17.00;99.90;;;;;;6155571;23;20445;-70
2021/08/28 15:39:31;;;;;;;0.80;0.80;;;16.90;99.90;;;;;;6155753;23;20430;-71
2021/08/28 15:41:59;;;;;;;0.70;0.70;;;17.00;99.90;;;;;;6155337;23;20944;-71
2021/08/28 15:44:26;;;;;;;0.80;0.80;;;17.00;99.90;;;;;;6154919;23;20438;-70
2021/08/28 15:46:53;;;;;;;0.50;0.50;;;17.00;99.90;;;;;;6157156;23;20791;-71
2021/08/28 15:49:20;;;;;;;0.83;0.83;;;17.00;99.90;;;;;;6158458;23;20493;-71
2021/08/28 15:51:47;;;;;;;0.60;0.60;;;17.00;99.90;;;;;;6159321;23;20713;-71
2021/08/28 15:54:15;;;;;;;1.07;0.60;;;16.90;99.90;;;;;;6158415;23;20485;-71
2021/08/28 15:56:43;;;;;;;0.60;0.60;;;16.80;99.90;;;;;;6158788;23;20423;-71
2021/08/28 15:59:11;;;;;;;0.73;0.60;;;16.70;99.90;;;;;;6161369;23;20423;-71
2021/08/28 16:01:38;;;;;;;0.63;0.63;;;16.50;99.90;;;;;;6155215;23;20501;-71
2021/08/28 16:04:05;;;;;;;2.53;0.70;;;16.40;99.90;;;;;;6154790;23;20418;-71
2021/08/28 16:06:32;;;;;;;0.50;0.50;;;16.30;99.90;;;;;;6155693;23;20504;-71
2021/08/28 16:08:59;;;;;;;1.10;1.00;;;16.30;99.90;;;;;;6155251;23;20423;-70
2021/08/28 16:11:26;;;;;;;0.83;0.83;;;16.40;99.90;;;;;;6156004;23;20454;-69
2021/08/28 16:13:54;;;;;;;1.00;1.00;;;16.40;99.90;;;;;;6153856;23;20529;-69
2021/08/28 16:16:22;;;;;;;0.70;0.70;;;16.30;99.90;;;;;;6155338;23;20426;-69
2021/08/28 16:18:49;;;;;;;0.90;0.90;;;16.30;99.90;;;;;;6154771;23;20422;-69
2021/08/28 16:21:15;;;;;;;1.23;1.23;;;16.20;99.90;;;;;;6155149;23;20471;-69
2021/08/28 16:23:42;;;;;;;1.30;1.30;;;16.20;99.90;;;;;;6154827;23;20450;-69
2021/08/28 16:26:09;;;;;;;1.10;1.10;;;16.30;99.90;;;;;;6155219;23;20426;-71
2021/08/28 16:28:35;;;;;;;1.30;1.20;;;16.30;99.90;;;;;;6154991;23;20743;-70
2021/08/28 16:31:02;;;;;;;1.50;1.50;;;16.30;99.90;;;;;;6155126;23;20513;-71
2021/08/28 16:33:30;;;;;;;1.80;1.30;;;16.30;99.90;;;;;;6154081;23;20741;-70
2021/08/28 16:35:59;;;;;;;1.70;1.60;;;16.30;99.90;;;;;;6154273;23;20901;-70
2021/08/28 16:38:26;;;;;;;1.70;1.70;;;16.20;99.90;;;;;;6154563;23;20943;-70
2021/08/28 16:40:53;;;;;;;1.90;1.87;;;16.20;99.90;;;;;;6154841;23;20447;-70
2021/08/28 16:43:19;;;;;;;1.70;1.70;;;16.20;99.90;;;;;;6154631;23;20423;-70
2021/08/28 16:45:46;;;;;;;1.27;1.27;;;16.20;99.90;;;;;;6154847;23;20430;-70
2021/08/28 16:48:13;;;;;;;1.57;1.57;;;16.20;99.90;;;;;;6154864;23;20422;-70